createdAt,value
2023-01-05T00:01:12.322Z,0.70
2023-01-05T00:03:39.468Z,0.50
2023-01-05T00:06:20.000Z,0.57
2023-01-05T00:08:47.894Z,0.80
2023-01-05T00:11:41.873Z,0.60
2023-01-05T00:14:43.796Z,0.60
2023-01-05T00:17:32.542Z,0.90
2023-01-05T00:20:18.820Z,0.70
2023-01-05T00:22:53.773Z,0.67
2023-01-05T00:25:26.940Z,0.70
2023-01-05T00:27:54.782Z,0.60
2023-01-05T00:30:29.720Z,0.60
2023-01-05T00:32:57.109Z,0.60
2023-01-05T00:35:24.543Z,0.50
2023-01-05T00:37:52.023Z,0.60
2023-01-05T00:40:21.935Z,0.50
2023-01-05T00:42:49.445Z,0.60
2023-01-05T00:45:18.244Z,0.70
2023-01-05T00:47:46.111Z,0.50
2023-01-05T00:50:15.687Z,0.60
2023-01-05T00:52:43.397Z,0.60
2023-01-05T00:55:10.919Z,0.60
2023-01-05T00:57:38.405Z,0.60
2023-01-05T01:00:07.784Z,0.50
2023-01-05T01:02:35.640Z,0.50
2023-01-05T01:05:03.013Z,0.50
2023-01-05T01:07:31.234Z,0.50
2023-01-05T01:09:58.685Z,0.50
2023-01-05T01:12:25.649Z,0.50
2023-01-05T01:14:53.026Z,0.50
2023-01-05T01:17:19.939Z,0.93
2023-01-05T01:19:47.279Z,0.50
2023-01-05T01:22:14.841Z,0.77
2023-01-05T01:24:42.590Z,0.50
2023-01-05T01:27:10.153Z,0.60
2023-01-05T01:29:37.582Z,0.57
2023-01-05T01:32:04.761Z,0.60
2023-01-05T01:34:31.823Z,0.50
2023-01-05T01:37:00.254Z,0.50
2023-01-05T01:39:32.907Z,0.50
2023-01-05T01:42:06.166Z,0.50
2023-01-05T01:45:12.583Z,0.40
2023-01-05T01:47:48.700Z,0.40
2023-01-05T01:50:18.899Z,0.40
2023-01-05T01:52:49.388Z,0.70
2023-01-05T01:55:16.849Z,0.50
2023-01-05T01:57:45.095Z,0.50
2023-01-05T02:00:14.807Z,0.40
2023-01-05T02:02:46.798Z,0.50
2023-01-05T02:05:18.246Z,0.50
2023-01-05T02:07:47.368Z,0.50
2023-01-05T02:10:19.193Z,0.40
2023-01-05T02:12:46.534Z,0.40
2023-01-05T02:15:31.950Z,0.40
2023-01-05T02:18:08.696Z,1.80
2023-01-05T02:20:53.426Z,0.50
2023-01-05T02:23:32.941Z,0.60
2023-01-05T02:26:18.381Z,0.40
2023-01-05T02:29:10.611Z,0.40
2023-01-05T02:32:13.560Z,0.43
2023-01-05T02:34:54.211Z,0.50
2023-01-05T02:37:41.416Z,0.50
2023-01-05T02:40:22.323Z,0.40
2023-01-05T02:42:51.659Z,0.50
2023-01-05T02:45:22.902Z,0.50
2023-01-05T02:47:54.298Z,0.50
2023-01-05T02:50:26.652Z,0.40
2023-01-05T02:53:14.135Z,0.40
2023-01-05T02:55:50.367Z,0.50
2023-01-05T02:58:32.813Z,0.50
2023-01-05T03:01:11.900Z,0.40
2023-01-05T03:03:53.837Z,0.60
2023-01-05T03:06:56.807Z,0.50
2023-01-05T03:09:36.890Z,0.50
2023-01-05T03:12:40.196Z,0.50
2023-01-05T03:15:30.752Z,0.40
2023-01-05T03:18:05.023Z,0.50
2023-01-05T03:20:37.305Z,0.40
2023-01-05T03:23:28.639Z,0.40
2023-01-05T03:26:15.132Z,0.50
2023-01-05T03:29:10.243Z,0.50
2023-01-05T03:32:12.201Z,0.40
2023-01-05T03:35:29.054Z,0.47
2023-01-05T03:38:07.647Z,0.50
2023-01-05T03:40:38.446Z,0.57
2023-01-05T03:43:07.219Z,0.60
2023-01-05T03:45:41.490Z,0.60
2023-01-05T03:48:12.232Z,0.73
2023-01-05T03:50:39.211Z,0.50
2023-01-05T03:53:07.893Z,0.50
2023-01-05T03:55:35.623Z,0.50
2023-01-05T03:58:02.791Z,0.47
2023-01-05T04:00:30.545Z,0.40
2023-01-05T04:03:03.939Z,0.50
2023-01-05T04:05:31.259Z,0.60
2023-01-05T04:07:59.220Z,0.50
2023-01-05T04:10:26.256Z,0.50
2023-01-05T04:12:54.437Z,0.50
2023-01-05T04:15:21.766Z,0.50
2023-01-05T04:17:48.951Z,0.70
2023-01-05T04:20:16.456Z,0.50
2023-01-05T04:22:43.859Z,0.60
2023-01-05T04:25:11.618Z,0.50
2023-01-05T04:27:41.772Z,0.63
2023-01-05T04:30:10.140Z,0.67
2023-01-05T04:32:38.089Z,0.50
2023-01-05T04:35:10.919Z,0.50
2023-01-05T04:37:40.548Z,0.40
2023-01-05T04:40:09.640Z,0.50
2023-01-05T04:42:46.312Z,0.40
2023-01-05T04:45:13.939Z,0.50
2023-01-05T04:47:41.386Z,0.50
2023-01-05T04:50:10.963Z,0.57
2023-01-05T04:52:39.303Z,0.50
2023-01-05T04:55:07.559Z,0.50
2023-01-05T04:57:35.532Z,0.50
2023-01-05T05:00:04.206Z,0.50
2023-01-05T05:02:32.469Z,0.50
2023-01-05T05:05:00.827Z,0.50
2023-01-05T05:07:28.246Z,0.50
2023-01-05T05:09:55.762Z,0.40
2023-01-05T05:12:23.232Z,0.40
2023-01-05T05:14:52.727Z,0.50
2023-01-05T05:17:20.154Z,0.40
2023-01-05T05:19:50.061Z,0.40
2023-01-05T05:22:20.309Z,0.40
2023-01-05T05:24:47.741Z,0.40
2023-01-05T05:27:15.320Z,0.50
2023-01-05T05:29:42.687Z,0.40
2023-01-05T05:32:10.068Z,0.40
2023-01-05T05:34:37.430Z,0.40
2023-01-05T05:37:04.801Z,0.40
2023-01-05T05:39:32.140Z,0.40
2023-01-05T05:41:59.481Z,0.50
2023-01-05T05:44:26.893Z,0.40
2023-01-05T05:46:54.285Z,0.50
2023-01-05T05:49:21.751Z,0.50
2023-01-05T05:51:49.060Z,0.43
2023-01-05T05:54:16.539Z,0.43
2023-01-05T05:56:43.910Z,0.50
2023-01-05T05:59:11.260Z,0.60
2023-01-05T06:01:38.714Z,0.50
2023-01-05T06:04:06.152Z,0.80
2023-01-05T06:06:33.514Z,0.80
2023-01-05T06:09:00.837Z,1.00
2023-01-05T06:11:28.204Z,0.70
2023-01-05T06:13:55.744Z,1.03
2023-01-05T06:16:23.120Z,0.63
2023-01-05T06:18:50.568Z,1.00
2023-01-05T06:21:17.944Z,0.73
2023-01-05T06:23:45.413Z,1.70
2023-01-05T06:26:12.746Z,1.40
2023-01-05T06:28:40.070Z,1.57
2023-01-05T06:31:07.840Z,1.10
2023-01-05T06:33:35.270Z,1.40
2023-01-05T06:36:02.589Z,1.80
2023-01-05T06:38:30.201Z,1.50
2023-01-05T06:40:58.156Z,1.73
2023-01-05T06:43:25.618Z,1.50
2023-01-05T06:45:53.109Z,1.33
2023-01-05T06:48:20.498Z,1.77
2023-01-05T06:50:47.899Z,1.90
2023-01-05T06:53:15.267Z,2.00
2023-01-05T06:55:42.686Z,1.90
2023-01-05T06:58:10.004Z,1.73
2023-01-05T07:00:37.473Z,1.97
2023-01-05T07:03:06.046Z,1.60
2023-01-05T07:05:33.568Z,2.40
2023-01-05T07:08:00.887Z,4.20
2023-01-05T07:10:28.400Z,2.70
2023-01-05T07:12:55.791Z,2.30
2023-01-05T07:15:23.248Z,2.93
2023-01-05T07:17:50.586Z,3.20
2023-01-05T07:20:18.006Z,3.30
2023-01-05T07:22:45.296Z,3.50
2023-01-05T07:25:12.720Z,3.47
2023-01-05T07:27:40.117Z,3.70
2023-01-05T07:30:08.122Z,3.40
2023-01-05T07:32:35.491Z,3.50
2023-01-05T07:35:03.110Z,3.97
2023-01-05T07:37:30.528Z,5.40
2023-01-05T07:39:57.871Z,3.27
2023-01-05T07:42:26.119Z,2.97
2023-01-05T07:44:53.530Z,3.20
2023-01-05T07:47:20.936Z,3.27
2023-01-05T07:49:48.365Z,3.47
2023-01-05T07:52:17.069Z,3.57
2023-01-05T07:54:45.254Z,3.13
2023-01-05T07:57:15.327Z,4.17
2023-01-05T07:59:42.726Z,4.70
2023-01-05T08:02:10.969Z,3.40
2023-01-05T08:04:38.533Z,3.77
2023-01-05T08:07:11.181Z,3.50
2023-01-05T08:09:57.937Z,3.13
2023-01-05T08:12:25.433Z,5.53
2023-01-05T08:14:52.832Z,3.80
2023-01-05T08:17:20.135Z,3.50
2023-01-05T08:19:47.691Z,3.90
2023-01-05T08:22:15.071Z,3.60
2023-01-05T08:24:42.397Z,3.70
2023-01-05T08:27:09.985Z,4.47
2023-01-05T08:29:37.382Z,6.23
2023-01-05T08:32:04.930Z,3.30
2023-01-05T08:34:34.872Z,3.83
2023-01-05T08:37:02.557Z,3.57
2023-01-05T08:39:29.958Z,2.70
2023-01-05T08:42:02.229Z,3.50
2023-01-05T08:44:30.185Z,3.20
2023-01-05T08:46:57.530Z,2.43
2023-01-05T08:49:24.883Z,3.10
2023-01-05T08:51:52.237Z,3.90
2023-01-05T08:54:19.518Z,2.60
2023-01-05T08:56:50.523Z,2.33
2023-01-05T08:59:17.898Z,3.63
2023-01-05T09:01:45.328Z,3.20
2023-01-05T09:04:12.742Z,1.70
2023-01-05T09:06:41.383Z,2.80
2023-01-05T09:09:08.791Z,1.63
2023-01-05T09:11:36.355Z,1.53
2023-01-05T09:14:03.775Z,1.63
2023-01-05T09:19:20.734Z,1.60
2023-01-05T09:21:48.109Z,2.70
2023-01-05T09:24:15.474Z,3.50
2023-01-05T09:26:43.602Z,3.93
2023-01-05T09:29:12.002Z,3.20
2023-01-05T09:31:40.867Z,2.70
2023-01-05T09:34:08.518Z,2.13
2023-01-05T09:36:38.692Z,2.30
2023-01-05T09:39:06.372Z,1.93
2023-01-05T09:41:55.786Z,2.50
2023-01-05T09:44:35.297Z,2.63
2023-01-05T09:47:23.670Z,1.80
2023-01-05T09:49:51.686Z,1.70
2023-01-05T09:52:21.701Z,2.33
2023-01-05T09:54:49.400Z,1.50
2023-01-05T09:57:20.784Z,1.97
2023-01-05T09:59:51.496Z,2.33
2023-01-05T10:02:21.104Z,3.37
2023-01-05T10:04:49.203Z,2.73
2023-01-05T10:07:45.454Z,1.93
2023-01-05T10:10:30.236Z,2.03
2023-01-05T10:13:03.016Z,2.60
2023-01-05T10:15:49.286Z,2.30
2023-01-05T10:18:22.871Z,2.37
2023-01-05T10:21:03.978Z,1.90
2023-01-05T10:24:01.630Z,1.50
2023-01-05T10:27:24.203Z,3.07
2023-01-05T10:29:47.113Z,1.90
2023-01-05T10:32:27.353Z,1.37
2023-01-05T10:35:41.685Z,1.60
2023-01-05T10:38:18.223Z,3.43
2023-01-05T10:41:24.223Z,2.80
2023-01-05T10:44:27.969Z,3.93
2023-01-05T10:46:54.929Z,2.37
2023-01-05T10:49:31.399Z,3.00
2023-01-05T10:52:00.446Z,2.30
2023-01-05T10:54:38.814Z,2.77
2023-01-05T10:57:34.839Z,2.30
2023-01-05T11:00:07.110Z,4.10
2023-01-05T11:02:37.696Z,2.40
2023-01-05T11:05:22.631Z,4.07
2023-01-05T11:07:53.148Z,2.47
2023-01-05T11:10:31.857Z,3.47
2023-01-05T11:13:15.585Z,3.20
2023-01-05T11:16:09.416Z,1.57
2023-01-05T11:18:42.487Z,2.70
2023-01-05T11:21:15.999Z,2.50
2023-01-05T11:23:49.991Z,2.90
2023-01-05T11:26:27.698Z,3.23
2023-01-05T11:29:09.171Z,2.50
2023-01-05T11:32:07.004Z,2.27
2023-01-05T11:34:46.010Z,3.30
2023-01-05T11:37:12.945Z,2.57
2023-01-05T11:39:42.395Z,2.70
2023-01-05T11:42:21.506Z,3.90
2023-01-05T11:45:00.944Z,1.80
2023-01-05T11:47:43.975Z,3.60
2023-01-05T11:50:14.379Z,2.40
2023-01-05T11:52:50.178Z,2.30
2023-01-05T11:55:40.121Z,2.30
2023-01-05T11:58:26.473Z,4.03
2023-01-05T12:01:10.153Z,3.50
2023-01-05T12:04:01.398Z,3.40
2023-01-05T12:06:43.890Z,2.80
2023-01-05T12:09:23.452Z,3.33
2023-01-05T12:12:06.048Z,2.87
2023-01-05T12:15:08.736Z,2.47
2023-01-05T12:17:41.487Z,2.70
2023-01-05T12:20:33.240Z,2.83
2023-01-05T12:23:34.248Z,2.53
2023-01-05T12:26:18.434Z,2.67
2023-01-05T12:29:21.353Z,2.07
2023-01-05T12:35:44.709Z,1.87
2023-01-05T12:38:33.870Z,2.97
2023-01-05T12:41:21.950Z,2.43
2023-01-05T12:44:38.405Z,3.70
2023-01-05T12:47:52.842Z,2.10
2023-01-05T12:50:51.951Z,3.27
2023-01-05T12:53:49.688Z,3.23
2023-01-05T12:56:31.157Z,2.80
2023-01-05T12:59:37.743Z,2.00
2023-01-05T13:02:07.824Z,3.00
2023-01-05T13:04:50.379Z,4.00
2023-01-05T13:08:02.086Z,3.00
2023-01-05T13:10:56.889Z,4.67
2023-01-05T13:13:38.513Z,3.57
2023-01-05T13:16:13.857Z,2.80
2023-01-05T13:18:49.467Z,2.50
2023-01-05T13:21:17.507Z,1.80
2023-01-05T13:24:01.753Z,2.40
2023-01-05T13:26:37.459Z,2.93
2023-01-05T13:29:05.411Z,3.40
2023-01-05T13:31:41.919Z,3.00
2023-01-05T13:34:27.420Z,2.53
2023-01-05T13:37:16.524Z,4.23
2023-01-05T13:40:21.189Z,2.60
2023-01-05T13:43:22.322Z,2.80
2023-01-05T13:46:14.665Z,2.80
2023-01-05T13:49:05.297Z,2.30
2023-01-05T13:51:56.831Z,3.50
2023-01-05T13:55:01.972Z,2.20
2023-01-05T13:57:35.519Z,3.03
2023-01-05T14:00:19.238Z,3.03
2023-01-05T14:02:53.863Z,2.93
2023-01-05T14:05:30.353Z,2.47
2023-01-05T14:07:59.442Z,3.30
2023-01-05T14:10:30.649Z,2.83
2023-01-05T14:12:58.620Z,2.30
2023-01-05T14:15:42.344Z,5.63
2023-01-05T14:18:11.144Z,4.00
2023-01-05T14:20:49.113Z,2.60
2023-01-05T14:23:25.694Z,2.87
2023-01-05T14:25:57.270Z,2.40
2023-01-05T14:28:30.839Z,1.97
2023-01-05T14:31:19.243Z,2.17
2023-01-05T14:33:59.197Z,2.83
2023-01-05T14:36:39.738Z,2.23
2023-01-05T14:39:19.626Z,3.17
2023-01-05T14:41:59.698Z,3.43
2023-01-05T14:44:40.985Z,3.40
2023-01-05T14:47:08.412Z,2.80
2023-01-05T14:49:43.570Z,3.20
2023-01-05T14:52:19.964Z,3.97
2023-01-05T14:54:50.126Z,3.00
2023-01-05T14:57:26.120Z,2.53
2023-01-05T15:00:05.641Z,5.03
2023-01-05T15:02:54.653Z,3.80
2023-01-05T15:05:23.501Z,4.60
2023-01-05T15:08:12.871Z,3.20
2023-01-05T15:11:04.069Z,3.97
2023-01-05T15:14:23.550Z,3.20
2023-01-05T15:17:11.836Z,3.50
2023-01-05T15:20:13.238Z,3.17
2023-01-05T15:22:46.162Z,3.03
2023-01-05T15:25:35.476Z,2.80
2023-01-05T15:28:24.734Z,2.83
2023-01-05T15:31:23.927Z,3.57
2023-01-05T15:34:20.501Z,3.93
2023-01-05T15:37:18.184Z,2.83
2023-01-05T15:39:56.100Z,3.27
2023-01-05T15:42:28.212Z,2.37
2023-01-05T15:44:56.632Z,3.60
2023-01-05T15:47:27.531Z,3.50
2023-01-05T15:50:01.887Z,2.97
2023-01-05T15:52:36.550Z,4.03
2023-01-05T15:55:15.541Z,4.40
2023-01-05T15:57:43.376Z,3.23
2023-01-05T16:00:26.152Z,4.50
2023-01-05T16:02:53.490Z,3.30
2023-01-05T16:05:27.507Z,3.47
2023-01-05T16:07:59.855Z,3.03
2023-01-05T16:10:29.668Z,2.93
2023-01-05T16:13:04.834Z,3.63
2023-01-05T16:15:34.367Z,4.03
2023-01-05T16:18:03.170Z,3.00
2023-01-05T16:20:30.888Z,3.20
2023-01-05T16:23:13.246Z,2.43
2023-01-05T16:25:43.665Z,3.73
2023-01-05T16:28:17.426Z,3.10
2023-01-05T16:30:46.570Z,3.50
2023-01-05T16:33:38.571Z,3.43
2023-01-05T16:36:26.126Z,2.93
2023-01-05T16:38:53.090Z,4.50
2023-01-05T16:41:26.253Z,3.40
2023-01-05T16:43:58.075Z,4.03
2023-01-05T16:46:35.837Z,2.80
2023-01-05T16:49:07.503Z,2.63
2023-01-05T16:51:38.697Z,3.20
2023-01-05T16:54:15.343Z,3.83
2023-01-05T16:57:01.565Z,3.80
2023-01-05T16:59:40.976Z,2.73
2023-01-05T17:02:29.321Z,3.60
2023-01-05T17:04:56.914Z,3.67
2023-01-05T17:07:24.424Z,5.03
2023-01-05T17:09:51.999Z,4.10
2023-01-05T17:12:20.120Z,3.50
2023-01-05T17:14:47.680Z,5.40
2023-01-05T17:17:15.161Z,3.80
2023-01-05T17:19:42.476Z,5.00
2023-01-05T17:22:12.733Z,4.17
2023-01-05T17:24:40.709Z,4.40
2023-01-05T17:27:10.537Z,3.63
2023-01-05T17:29:37.884Z,3.23
2023-01-05T17:32:04.970Z,3.43
2023-01-05T17:34:32.391Z,3.13
2023-01-05T17:37:00.797Z,5.33
2023-01-05T17:39:28.122Z,4.40
2023-01-05T17:42:15.473Z,4.57
2023-01-05T17:44:42.782Z,6.00
2023-01-05T17:47:10.141Z,6.77
2023-01-05T17:49:37.545Z,8.80
2023-01-05T17:52:05.120Z,7.27
2023-01-05T17:54:34.186Z,7.90
2023-01-05T17:57:01.591Z,7.37
2023-01-05T17:59:28.731Z,5.93
2023-01-05T18:01:56.289Z,5.70
2023-01-05T18:04:24.762Z,5.70
2023-01-05T18:06:53.859Z,9.57
2023-01-05T18:09:21.358Z,10.70
2023-01-05T18:11:50.160Z,13.47
2023-01-05T18:14:19.083Z,12.70
2023-01-05T18:16:46.501Z,16.07
2023-01-05T18:21:47.195Z,54.07
2023-01-05T18:24:14.669Z,11.03
2023-01-05T18:26:41.999Z,13.13
2023-01-05T18:29:09.338Z,13.50
2023-01-05T18:31:41.736Z,13.33
2023-01-05T18:34:09.196Z,9.57
2023-01-05T18:36:36.155Z,10.57
2023-01-05T18:39:03.315Z,8.50
2023-01-05T18:41:30.719Z,9.90
2023-01-05T18:43:57.928Z,6.93
2023-01-05T18:46:25.064Z,9.07
2023-01-05T18:48:52.468Z,8.63
2023-01-05T18:51:19.828Z,7.23
2023-01-05T18:53:47.302Z,7.97
2023-01-05T18:56:15.677Z,9.20
2023-01-05T18:58:43.375Z,8.63
2023-01-05T19:01:13.776Z,7.30
2023-01-05T19:03:41.595Z,8.20
2023-01-05T19:06:19.044Z,7.10
2023-01-05T19:08:48.896Z,8.70
2023-01-05T19:11:23.057Z,8.40
2023-01-05T19:13:50.704Z,7.53
2023-01-05T19:16:22.402Z,10.80
2023-01-05T19:18:53.358Z,9.73
2023-01-05T19:21:23.141Z,7.20
2023-01-05T19:23:56.756Z,10.57
2023-01-05T19:26:25.353Z,9.23
2023-01-05T19:28:52.912Z,10.50
2023-01-05T19:31:23.182Z,7.50
2023-01-05T19:33:51.121Z,7.40
2023-01-05T19:36:20.949Z,8.03
2023-01-05T19:38:48.249Z,8.70
2023-01-05T19:41:19.335Z,7.60
2023-01-05T19:43:52.521Z,15.10
2023-01-05T19:46:22.031Z,15.03
2023-01-05T19:48:49.650Z,14.17
2023-01-05T19:51:23.468Z,22.90
2023-01-05T19:54:02.862Z,13.07
2023-01-05T19:56:33.408Z,11.87
2023-01-05T19:59:04.789Z,8.60
2023-01-05T20:01:35.306Z,6.00
2023-01-05T20:04:02.965Z,7.30
2023-01-05T20:06:34.244Z,7.80
2023-01-05T20:09:05.406Z,8.67
2023-01-05T20:11:35.841Z,6.80
2023-01-05T20:14:20.016Z,11.00
2023-01-05T20:16:51.447Z,11.70
2023-01-05T20:19:20.089Z,13.10
2023-01-05T20:21:51.276Z,10.77
2023-01-05T20:24:24.530Z,12.23
2023-01-05T20:26:55.176Z,12.50
2023-01-05T20:29:24.230Z,14.63
2023-01-05T20:32:04.475Z,17.10
2023-01-05T20:34:35.535Z,15.33
2023-01-05T20:37:07.123Z,17.60
2023-01-05T20:39:36.359Z,20.30
2023-01-05T20:42:07.019Z,19.70
2023-01-05T20:44:40.737Z,17.57
2023-01-05T20:47:09.286Z,17.27
2023-01-05T20:49:38.497Z,20.77
2023-01-05T20:52:06.580Z,15.77
2023-01-05T20:54:34.099Z,11.93
2023-01-05T20:57:01.080Z,12.03
2023-01-05T20:59:33.146Z,14.07
2023-01-05T21:02:00.876Z,12.23
2023-01-05T21:04:30.048Z,26.90
2023-01-05T21:07:00.224Z,11.43
2023-01-05T21:09:29.482Z,18.23
2023-01-05T21:11:59.609Z,19.37
2023-01-05T21:14:26.806Z,25.23
2023-01-05T21:16:55.257Z,19.77
2023-01-05T21:19:24.261Z,21.83
2023-01-05T21:21:56.040Z,16.13
2023-01-05T21:24:23.761Z,16.90
2023-01-05T21:26:51.321Z,20.90
2023-01-05T21:29:22.106Z,18.57
2023-01-05T21:31:50.468Z,19.50
2023-01-05T21:34:17.890Z,22.53
2023-01-05T21:36:46.128Z,13.03
2023-01-05T21:39:19.811Z,10.60
2023-01-05T21:42:07.118Z,9.33
2023-01-05T21:44:34.909Z,9.13
2023-01-05T21:47:04.636Z,8.07
2023-01-05T21:49:32.657Z,8.70
2023-01-05T21:52:18.044Z,11.93
2023-01-05T21:55:03.507Z,14.53
2023-01-05T21:57:30.555Z,11.40
2023-01-05T21:59:57.476Z,41.60
2023-01-05T22:02:24.415Z,9.63
2023-01-05T22:04:51.434Z,15.70
2023-01-05T22:07:18.355Z,7.83
2023-01-05T22:09:45.380Z,8.77
2023-01-05T22:12:12.385Z,8.33
2023-01-05T22:14:39.835Z,11.70
2023-01-05T22:17:08.666Z,7.27
2023-01-05T22:19:35.962Z,6.27
2023-01-05T22:22:03.290Z,7.10
2023-01-05T22:24:30.255Z,4.27
2023-01-05T22:26:57.223Z,5.50
2023-01-05T22:29:24.544Z,5.40
2023-01-05T22:31:52.092Z,5.13
2023-01-05T22:34:19.316Z,4.43
2023-01-05T22:36:46.356Z,4.97
2023-01-05T22:39:13.433Z,4.93
2023-01-05T22:41:40.715Z,6.70
2023-01-05T22:44:08.558Z,5.87
2023-01-05T22:46:35.480Z,5.87
2023-01-05T22:49:02.486Z,6.37
2023-01-05T22:51:34.671Z,5.37
2023-01-05T22:54:02.727Z,4.70
2023-01-05T22:56:32.313Z,5.23
2023-01-05T22:59:00.504Z,4.10
2023-01-05T23:01:38.596Z,5.53
2023-01-05T23:04:07.220Z,6.33
2023-01-05T23:06:35.092Z,9.73
2023-01-05T23:09:04.742Z,10.90
2023-01-05T23:11:35.518Z,11.93
2023-01-05T23:14:05.192Z,12.13
2023-01-05T23:16:34.097Z,11.03
2023-01-05T23:19:02.633Z,10.57
2023-01-05T23:21:30.145Z,7.90
2023-01-05T23:23:58.478Z,6.60
2023-01-05T23:26:27.562Z,5.40
2023-01-05T23:28:54.701Z,7.00
2023-01-05T23:31:22.135Z,7.77
2023-01-05T23:33:50.000Z,10.17
2023-01-05T23:36:19.076Z,9.90
2023-01-05T23:38:46.798Z,7.53
2023-01-05T23:41:16.287Z,6.77
2023-01-05T23:43:45.169Z,7.20
2023-01-05T23:46:20.736Z,5.87
2023-01-05T23:48:49.329Z,5.57
2023-01-05T23:51:18.181Z,6.53
2023-01-05T23:53:50.296Z,6.90
2023-01-05T23:56:28.735Z,7.47
2023-01-05T23:59:06.504Z,8.30
